createdAt,value
2023-02-02T00:00:01.178Z,305.2
2023-02-02T00:05:01.355Z,313.1
2023-02-02T00:15:01.265Z,299.0
2023-02-02T00:20:01.159Z,248.4
2023-02-02T00:25:01.250Z,209.9
2023-02-02T00:30:01.158Z,180.9
2023-02-02T00:35:01.229Z,138.2
2023-02-02T00:40:06.191Z,117.7
2023-02-02T00:45:01.310Z,106.8
2023-02-02T00:50:01.171Z,91.1
2023-02-02T00:55:01.230Z,70.0
2023-02-02T01:00:01.148Z,49.8
2023-02-02T01:05:01.207Z,42.2
2023-02-02T01:15:01.212Z,42.4
2023-02-02T01:20:02.150Z,27.4
2023-02-02T01:25:01.165Z,16.2
2023-02-02T01:30:01.095Z,12.0
2023-02-02T01:35:01.221Z,11.4
2023-02-02T01:45:01.242Z,9.0
2023-02-02T01:50:01.092Z,12.5
2023-02-02T01:55:01.180Z,11.5
2023-02-02T02:00:01.134Z,23.4
2023-02-02T02:05:01.298Z,36.9
2023-02-02T02:10:01.153Z,89.8
2023-02-02T02:15:01.207Z,99.6
2023-02-02T02:25:01.501Z,102.6
2023-02-02T03:15:06.569Z,57.7
2023-02-02T03:20:01.438Z,101.3
2023-02-02T03:25:01.525Z,103.7
2023-02-02T03:30:01.406Z,119.2
2023-02-02T03:35:01.528Z,143.9
2023-02-02T03:40:01.388Z,123.4
2023-02-02T03:45:01.592Z,92.2
2023-02-02T03:50:01.412Z,112.6
2023-02-02T03:55:01.567Z,130.7
2023-02-02T04:00:01.449Z,104.4
2023-02-02T04:05:01.486Z,88.1
2023-02-02T04:10:01.543Z,89.0
2023-02-02T04:15:01.591Z,68.3
2023-02-02T04:20:01.418Z,34.6
2023-02-02T04:25:01.712Z,56.1
2023-02-02T04:30:01.458Z,64.1
2023-02-02T04:40:01.496Z,85.0
2023-02-02T04:45:01.452Z,96.1
2023-02-02T04:50:01.391Z,85.1
2023-02-02T04:55:01.447Z,93.6
2023-02-02T05:00:01.618Z,96.4
2023-02-02T05:05:02.426Z,77.8
2023-02-02T05:10:01.322Z,115.1
2023-02-02T05:15:01.368Z,164.4
2023-02-02T05:20:01.346Z,205.2
2023-02-02T05:25:01.487Z,260.2
2023-02-02T05:30:01.340Z,314.4
2023-02-02T05:35:01.453Z,322.0
2023-02-02T05:40:01.340Z,329.7
2023-02-02T05:45:01.423Z,333.4
2023-02-02T05:50:01.323Z,315.2
2023-02-02T05:55:01.401Z,315.9
2023-02-02T06:00:01.461Z,326.2
2023-02-02T06:05:01.335Z,298.6
2023-02-02T06:10:01.324Z,269.6
2023-02-02T06:15:01.407Z,216.4
2023-02-02T06:20:01.273Z,177.7
2023-02-02T06:25:01.388Z,125.4
2023-02-02T06:30:01.368Z,100.1
2023-02-02T06:35:01.357Z,78.3
2023-02-02T06:40:01.639Z,124.7
2023-02-02T06:45:01.412Z,145.5
2023-02-02T06:50:01.299Z,156.0
2023-02-02T06:55:06.519Z,206.4
2023-02-02T07:00:01.300Z,202.5
2023-02-02T07:05:01.352Z,214.9
2023-02-02T07:10:01.341Z,219.2
2023-02-02T07:15:01.400Z,253.0
2023-02-02T07:20:01.336Z,249.6
2023-02-02T07:25:01.438Z,258.1
2023-02-02T07:30:02.369Z,203.2
2023-02-02T07:35:01.341Z,185.0
2023-02-02T07:40:01.242Z,131.4
2023-02-02T07:45:25.614Z,66.5
2023-02-02T07:50:01.211Z,48.4
2023-02-02T07:55:13.830Z,41.1
2023-02-02T08:00:01.279Z,23.6
2023-02-02T08:05:01.277Z,35.6
2023-02-02T08:10:01.209Z,49.5
2023-02-02T08:15:01.320Z,67.2
2023-02-02T08:20:01.219Z,82.6
2023-02-02T08:25:01.330Z,83.3
2023-02-02T08:30:01.209Z,81.5
2023-02-02T08:35:01.383Z,80.6
2023-02-02T08:46:00.688Z,76.2
2023-02-02T08:50:01.217Z,98.2
2023-02-02T08:55:01.265Z,107.3
2023-02-02T09:00:01.183Z,113.2
2023-02-02T09:05:01.303Z,110.3
2023-02-02T09:10:01.171Z,117.2
2023-02-02T09:15:01.320Z,102.0
2023-02-02T09:20:06.195Z,122.2
2023-02-02T09:25:01.249Z,133.4
2023-02-02T09:30:01.189Z,171.5
2023-02-02T09:35:02.795Z,198.5
2023-02-02T09:40:01.180Z,201.6
2023-02-02T09:45:01.283Z,177.7
2023-02-02T09:50:01.187Z,181.2
2023-02-02T09:55:01.267Z,154.8
2023-02-02T10:00:01.159Z,135.4
2023-02-02T10:05:01.545Z,162.7
2023-02-02T10:10:01.177Z,180.2
2023-02-02T10:20:01.273Z,165.6
2023-02-02T10:30:01.221Z,140.5
2023-02-02T10:35:12.849Z,117.4
2023-02-02T10:55:03.914Z,128.4
2023-02-02T11:15:00.930Z,131.6
2023-02-02T11:20:00.722Z,144.6
2023-02-02T11:35:02.136Z,93.2
2023-02-02T11:55:00.928Z,266.2
2023-02-02T12:00:01.832Z,236.3
2023-02-02T12:15:01.272Z,98.2
2023-02-02T12:20:01.152Z,57.8
2023-02-02T12:25:01.653Z,104.7
2023-02-02T12:30:01.149Z,121.1
2023-02-02T12:45:00.883Z,187.6
2023-02-02T12:50:05.749Z,155.0
2023-02-02T12:55:00.852Z,160.0
2023-02-02T13:00:03.426Z,153.1
2023-02-02T13:05:00.793Z,128.5
2023-02-02T13:10:00.733Z,113.1
2023-02-02T13:15:01.416Z,114.1
2023-02-02T13:20:01.100Z,109.8
2023-02-02T13:25:01.259Z,112.9
2023-02-02T13:30:00.792Z,135.1
2023-02-02T13:35:00.897Z,147.6
2023-02-02T13:40:01.281Z,149.8
2023-02-02T13:55:01.818Z,118.6
2023-02-02T14:00:01.695Z,126.9
2023-02-02T14:15:01.311Z,87.2
2023-02-02T14:20:01.231Z,135.8
2023-02-02T14:25:01.297Z,155.9
2023-02-02T14:30:01.568Z,162.7
2023-02-02T14:35:01.252Z,167.9
2023-02-02T14:55:01.006Z,159.8
2023-02-02T15:00:01.548Z,82.1
2023-02-02T15:05:00.850Z,89.9
2023-02-02T15:25:01.442Z,169.6
2023-02-02T15:30:01.336Z,169.9
2023-02-02T15:35:01.508Z,147.4
2023-02-02T15:40:01.536Z,121.5
2023-02-02T15:45:01.461Z,97.3
2023-02-02T15:50:01.469Z,71.7
2023-02-02T15:55:01.458Z,39.4
2023-02-02T16:15:01.311Z,62.0
2023-02-02T16:20:01.175Z,40.0
2023-02-02T16:25:01.220Z,33.7
2023-02-02T16:30:01.172Z,44.9
2023-02-02T16:35:01.367Z,58.4
2023-02-02T16:40:06.158Z,68.1
2023-02-02T16:55:00.952Z,450.4
2023-02-02T17:00:00.862Z,454.1
2023-02-02T17:05:05.929Z,418.9
2023-02-02T17:10:00.832Z,399.8
2023-02-02T17:15:00.919Z,380.9
2023-02-02T17:55:01.638Z,145.1
2023-02-02T18:00:01.471Z,176.8
2023-02-02T18:05:01.544Z,224.0
2023-02-02T18:10:01.477Z,236.5
2023-02-02T18:15:01.568Z,270.0
2023-02-02T18:20:01.441Z,228.1
2023-02-02T18:25:01.508Z,176.2
2023-02-02T18:30:01.441Z,145.6
2023-02-02T18:35:01.590Z,118.8
2023-02-02T18:40:06.474Z,64.3
2023-02-02T18:45:01.500Z,96.2
2023-02-02T18:50:01.488Z,115.6
2023-02-02T18:55:01.550Z,107.9
2023-02-02T19:00:01.737Z,112.9
2023-02-02T19:05:01.589Z,104.6
2023-02-02T19:10:01.435Z,62.6
2023-02-02T19:15:01.544Z,62.9
2023-02-02T19:20:01.435Z,71.1
2023-02-02T19:30:03.481Z,67.6
2023-02-02T19:35:01.544Z,67.4
2023-02-02T19:40:01.385Z,63.0
2023-02-02T19:45:01.440Z,54.4
2023-02-02T20:05:01.444Z,65.0
2023-02-02T20:10:01.317Z,41.5
2023-02-02T20:25:00.837Z,122.8
2023-02-02T20:30:00.716Z,123.6
2023-02-02T20:45:01.792Z,495.4
2023-02-02T20:55:01.223Z,285.8
2023-02-02T21:00:01.155Z,203.7
2023-02-02T21:05:01.262Z,152.8
2023-02-02T21:10:01.166Z,130.2
2023-02-02T21:25:01.298Z,48.7
2023-02-02T21:30:01.171Z,56.9
2023-02-02T21:35:01.225Z,80.1
2023-02-02T21:40:01.150Z,94.0
2023-02-02T21:50:01.303Z,122.6
2023-02-02T22:05:01.351Z,367.6
2023-02-02T22:10:01.385Z,369.6
2023-02-02T22:15:01.295Z,331.8
2023-02-02T22:20:01.249Z,311.8
2023-02-02T22:30:01.369Z,303.3
2023-02-02T22:45:00.934Z,179.2
2023-02-02T22:50:00.803Z,168.8
2023-02-02T22:55:00.866Z,202.4
2023-02-02T23:00:00.810Z,208.6
2023-02-02T23:05:00.869Z,236.9
2023-02-02T23:10:00.825Z,273.3
2023-02-02T23:15:00.879Z,291.3
2023-02-02T23:20:00.836Z,271.6
2023-02-02T23:25:00.963Z,268.6
2023-02-02T23:30:00.907Z,236.5
2023-02-02T23:35:00.989Z,208.5
2023-02-02T23:40:00.919Z,202.5
2023-02-02T23:45:01.045Z,248.3
2023-02-02T23:50:00.977Z,251.2
2023-02-02T23:55:01.004Z,261.8
